Terminal Aerodrome Forecast
Issued by NWS Nashville, TN

Home | Current Version | Previous Version | Text Only | Print | Product List | Glossary On
Versions: 1 2 3 4 5 6 7 8 9 10 11 12 13 14 15 16 17 18 19 20 21 22 23 24 25 26 27
510
FTUS44 KOHX 270537
TAFBNA
TAF
KBNA 270537Z 2706/2806 17005KT P6SM BKN200
      TEMPO 2710/2712 4SM BR
     FM271500 19009KT P6SM OVC080
     FM271800 19012G18KT P6SM VCSH SCT035 BKN080 PROB30 2723/2803
      4SM -TSRA OVC035CB
     FM280300 19009KT 4SM -SHRA OVC035=

USA.gov is the U.S. government's official web portal to all federal, state and local government web resources and services.